createdAt,value
2019-02-23T00:01:15.638Z,20.07
2019-02-23T00:03:43.444Z,16.87
2019-02-23T00:06:29.279Z,12.60
2019-02-23T00:08:48.578Z,27.57
2019-02-23T00:11:16.339Z,18.33
2019-02-23T00:13:44.234Z,20.50
2019-02-23T00:16:12.181Z,25.40
2019-02-23T00:18:39.955Z,17.03
2019-02-23T00:21:07.783Z,16.03
2019-02-23T00:23:35.698Z,14.97
2019-02-23T00:26:03.652Z,12.03
2019-02-23T00:28:31.590Z,19.77
2019-02-23T00:30:59.500Z,12.33
2019-02-23T00:33:27.382Z,10.23
2019-02-23T00:35:55.282Z,9.70
2019-02-23T00:38:23.180Z,19.50
2019-02-23T00:40:50.953Z,11.10
2019-02-23T00:43:18.860Z,14.10
2019-02-23T00:45:46.683Z,19.77
2019-02-23T00:48:14.578Z,16.00
2019-02-23T00:50:42.475Z,12.47
2019-02-23T00:53:10.526Z,15.90
2019-02-23T00:55:38.339Z,15.13
2019-02-23T00:58:06.276Z,9.00
2019-02-23T01:00:34.190Z,17.23
2019-02-23T01:03:01.974Z,11.67
2019-02-23T01:05:29.873Z,13.03
2019-02-23T01:07:57.889Z,17.27
2019-02-23T01:10:25.885Z,12.27
2019-02-23T01:12:53.790Z,11.57
2019-02-23T01:15:21.805Z,9.27
2019-02-23T01:17:49.556Z,12.70
2019-02-23T01:20:17.549Z,19.27
2019-02-23T01:22:45.381Z,19.40
2019-02-23T01:25:13.376Z,12.17
2019-02-23T01:27:41.393Z,13.57
2019-02-23T01:30:10.326Z,13.07
2019-02-23T01:32:38.200Z,14.33
2019-02-23T01:35:06.425Z,14.60
2019-02-23T01:37:34.416Z,16.37
2019-02-23T01:40:02.324Z,20.87
2019-02-23T01:42:30.238Z,20.83
2019-02-23T01:44:58.120Z,14.27
2019-02-23T01:47:26.116Z,24.77
2019-02-23T01:49:58.821Z,15.23
2019-02-23T01:52:23.663Z,15.10
2019-02-23T01:54:51.623Z,14.97
2019-02-23T01:57:19.577Z,10.40
2019-02-23T01:59:47.261Z,15.37
2019-02-23T02:02:15.243Z,10.83
2019-02-23T02:04:43.074Z,10.27
2019-02-23T02:07:10.956Z,10.20
2019-02-23T02:09:38.853Z,10.80
2019-02-23T02:12:08.503Z,13.90
2019-02-23T02:14:37.005Z,12.23
2019-02-23T02:17:04.790Z,19.00
2019-02-23T02:19:32.816Z,12.90
2019-02-23T02:22:00.736Z,9.73
2019-02-23T02:24:28.594Z,15.33
2019-02-23T02:26:56.421Z,12.47
2019-02-23T02:29:24.417Z,12.33
2019-02-23T02:31:52.283Z,13.60
2019-02-23T02:34:20.228Z,12.83
2019-02-23T02:36:48.034Z,12.27
2019-02-23T02:39:15.907Z,12.27
2019-02-23T02:41:43.893Z,14.63
2019-02-23T02:44:11.735Z,16.40
2019-02-23T02:46:39.609Z,13.83
2019-02-23T02:49:07.623Z,19.97
2019-02-23T02:51:35.542Z,14.67
2019-02-23T02:54:03.494Z,12.93
2019-02-23T02:56:31.495Z,13.43
2019-02-23T02:58:59.327Z,25.33
2019-02-23T03:01:27.022Z,13.80
2019-02-23T03:03:54.931Z,16.07
2019-02-23T03:06:22.817Z,16.17
2019-02-23T03:08:50.623Z,15.23
2019-02-23T03:11:18.415Z,18.37
2019-02-23T03:13:46.314Z,18.80
2019-02-23T03:16:14.307Z,13.93
2019-02-23T03:18:42.245Z,14.93
2019-02-23T03:21:10.243Z,11.77
2019-02-23T03:23:38.083Z,11.77
2019-02-23T03:26:06.023Z,13.37
2019-02-23T03:28:35.376Z,15.20
2019-02-23T03:31:03.341Z,10.17
2019-02-23T03:33:31.284Z,16.27
2019-02-23T03:35:59.193Z,22.30
2019-02-23T03:38:27.162Z,15.33
2019-02-23T03:40:55.176Z,16.67
2019-02-23T03:43:23.192Z,7.67
2019-02-23T03:45:51.193Z,9.13
2019-02-23T03:48:19.182Z,11.53
2019-02-23T03:50:49.482Z,9.43
2019-02-23T03:53:16.799Z,10.03
2019-02-23T03:55:44.623Z,12.37
2019-02-23T03:58:12.519Z,8.87
2019-02-23T04:00:40.375Z,14.47
2019-02-23T04:03:08.402Z,17.57
2019-02-23T04:05:36.322Z,6.43
2019-02-23T04:08:04.308Z,27.10
2019-02-23T04:10:32.215Z,14.83
2019-02-23T04:13:00.125Z,10.20
2019-02-23T04:15:28.123Z,9.50
2019-02-23T04:17:56.093Z,7.50
2019-02-23T04:20:24.042Z,10.97
2019-02-23T04:22:51.879Z,10.73
2019-02-23T04:25:19.821Z,6.37
2019-02-23T04:27:47.619Z,10.87
2019-02-23T04:30:17.134Z,11.27
2019-02-23T04:32:45.036Z,11.70
2019-02-23T04:35:12.856Z,13.67
2019-02-23T04:37:40.749Z,10.87
2019-02-23T04:40:08.782Z,10.97
2019-02-23T04:42:36.660Z,10.37
2019-02-23T04:45:04.633Z,13.20
2019-02-23T04:47:32.551Z,9.43
2019-02-23T04:50:00.557Z,8.37
2019-02-23T04:52:28.533Z,9.13
2019-02-23T04:54:56.567Z,11.33
2019-02-23T04:57:24.470Z,12.37
2019-02-23T04:59:52.135Z,11.83
2019-02-23T05:02:20.059Z,9.33
2019-02-23T05:04:47.761Z,7.40
2019-02-23T05:07:15.466Z,8.70
2019-02-23T05:09:43.361Z,11.63
2019-02-23T05:12:11.256Z,8.80
2019-02-23T05:14:39.137Z,11.00
2019-02-23T05:17:07.140Z,21.07
2019-02-23T05:19:35.056Z,25.63
2019-02-23T05:22:02.934Z,10.63
2019-02-23T05:24:30.955Z,11.70
2019-02-23T05:26:58.884Z,18.67
2019-02-23T05:29:26.763Z,15.10
2019-02-23T05:31:55.683Z,6.90
2019-02-23T05:34:23.724Z,8.17
2019-02-23T05:36:51.906Z,8.53
2019-02-23T05:39:19.820Z,13.60
2019-02-23T05:41:47.691Z,7.87
2019-02-23T05:44:15.568Z,7.20
2019-02-23T05:46:43.522Z,8.97
2019-02-23T05:49:11.398Z,7.63
2019-02-23T05:51:39.312Z,10.07
2019-02-23T05:54:07.206Z,8.70
2019-02-23T05:56:35.096Z,4.50
2019-02-23T05:59:02.982Z,11.13
2019-02-23T06:01:30.995Z,11.13
2019-02-23T06:03:58.909Z,5.90
2019-02-23T06:06:26.876Z,6.00
2019-02-23T06:08:54.795Z,11.13
2019-02-23T06:11:22.842Z,7.33
2019-02-23T06:13:50.691Z,9.87
2019-02-23T06:16:18.603Z,6.83
2019-02-23T06:18:46.520Z,10.03
2019-02-23T06:21:14.515Z,13.67
2019-02-23T06:23:42.495Z,11.93
2019-02-23T06:26:10.337Z,6.77
2019-02-23T06:28:38.080Z,9.47
2019-02-23T06:31:06.024Z,8.20
2019-02-23T06:33:34.847Z,8.47
2019-02-23T06:36:02.589Z,9.70
2019-02-23T06:38:30.535Z,9.10
2019-02-23T06:40:58.550Z,6.60
2019-02-23T06:43:26.392Z,9.13
2019-02-23T06:45:54.322Z,9.03
2019-02-23T06:48:22.133Z,8.60
2019-02-23T06:50:50.043Z,7.77
2019-02-23T06:53:17.933Z,11.13
2019-02-23T06:55:45.860Z,11.83
2019-02-23T06:58:13.688Z,11.03
2019-02-23T07:00:41.639Z,5.47
2019-02-23T07:03:09.571Z,6.83
2019-02-23T07:05:37.493Z,10.13
2019-02-23T07:08:05.426Z,10.80
2019-02-23T07:10:33.243Z,10.17
2019-02-23T07:13:13.462Z,13.27
2019-02-23T07:15:41.451Z,11.53
2019-02-23T07:18:09.166Z,14.80
2019-02-23T07:20:44.223Z,8.33
2019-02-23T07:23:06.872Z,11.33
2019-02-23T07:25:34.780Z,13.10
2019-02-23T07:28:02.731Z,13.37
2019-02-23T07:30:31.059Z,10.50
2019-02-23T07:32:59.037Z,11.47
2019-02-23T07:35:27.920Z,11.33
2019-02-23T07:37:55.823Z,8.77
2019-02-23T07:40:23.951Z,9.30
2019-02-23T07:42:51.839Z,14.63
2019-02-23T07:45:19.754Z,7.30
2019-02-23T07:47:47.595Z,9.10
2019-02-23T07:50:15.531Z,13.03
2019-02-23T07:52:43.336Z,8.67
2019-02-23T07:55:11.553Z,10.70
2019-02-23T07:57:39.436Z,8.60
2019-02-23T08:00:07.862Z,15.30
2019-02-23T08:02:35.743Z,9.07
2019-02-23T08:05:03.960Z,13.37
2019-02-23T08:07:31.808Z,9.73
2019-02-23T08:09:59.635Z,9.27
2019-02-23T08:12:27.550Z,9.67
2019-02-23T08:14:55.580Z,9.17
2019-02-23T08:17:23.566Z,13.37
2019-02-23T08:19:51.463Z,6.53
2019-02-23T08:22:19.479Z,8.83
2019-02-23T08:24:47.432Z,6.93
2019-02-23T08:27:15.384Z,7.80
2019-02-23T08:29:43.255Z,7.40
2019-02-23T08:32:11.127Z,9.90
2019-02-23T08:34:41.933Z,16.70
2019-02-23T08:37:10.752Z,11.63
2019-02-23T08:39:38.628Z,11.43
2019-02-23T08:42:06.700Z,16.50
2019-02-23T08:44:34.459Z,12.90
2019-02-23T08:47:02.433Z,8.67
2019-02-23T08:49:30.366Z,12.00
2019-02-23T08:51:58.413Z,9.37
2019-02-23T08:54:26.218Z,12.23
2019-02-23T08:56:55.348Z,9.77
2019-02-23T08:59:23.518Z,13.47
2019-02-23T09:01:51.282Z,11.80
2019-02-23T09:04:19.203Z,7.17
2019-02-23T09:06:47.103Z,13.00
2019-02-23T09:09:14.894Z,11.03
2019-02-23T09:11:42.908Z,9.23
2019-02-23T09:14:10.801Z,8.33
2019-02-23T09:16:38.669Z,8.13
2019-02-23T09:19:06.595Z,7.57
2019-02-23T09:21:34.500Z,6.40
2019-02-23T09:24:02.459Z,13.00
2019-02-23T09:26:30.391Z,9.20
2019-02-23T09:28:58.187Z,11.00
2019-02-23T09:31:26.175Z,5.23
2019-02-23T09:33:53.990Z,7.20
2019-02-23T09:36:21.919Z,8.17
2019-02-23T09:38:50.890Z,8.80
2019-02-23T09:41:18.834Z,9.37
2019-02-23T09:43:46.717Z,10.03
2019-02-23T09:46:14.580Z,6.53
2019-02-23T09:48:42.515Z,8.33
2019-02-23T09:51:10.444Z,9.03
2019-02-23T09:53:38.305Z,7.00
2019-02-23T09:56:06.316Z,6.40
2019-02-23T09:58:34.021Z,9.00
2019-02-23T10:01:01.866Z,11.00
2019-02-23T10:03:29.831Z,5.57
2019-02-23T10:05:57.641Z,8.70
2019-02-23T10:08:25.700Z,7.93
2019-02-23T10:10:54.639Z,7.03
2019-02-23T10:13:22.549Z,8.63
2019-02-23T10:15:50.415Z,6.17
2019-02-23T10:18:18.448Z,8.07
2019-02-23T10:20:46.334Z,6.30
2019-02-23T10:23:21.460Z,8.17
2019-02-23T10:25:43.887Z,8.17
2019-02-23T10:28:11.790Z,11.47
2019-02-23T10:30:39.747Z,5.97
2019-02-23T10:33:07.703Z,6.47
2019-02-23T10:35:35.431Z,9.20
2019-02-23T10:38:03.383Z,8.13
2019-02-23T10:40:32.411Z,8.80
2019-02-23T10:43:00.323Z,5.93
2019-02-23T10:45:28.219Z,8.33
2019-02-23T10:47:56.192Z,10.07
2019-02-23T10:50:24.015Z,13.00
2019-02-23T10:52:51.978Z,12.63
2019-02-23T10:55:19.916Z,8.60
2019-02-23T10:57:47.806Z,15.10
2019-02-23T11:00:19.612Z,8.37
2019-02-23T11:02:47.622Z,10.87
2019-02-23T11:05:16.717Z,12.77
2019-02-23T11:07:44.594Z,12.63
2019-02-23T11:10:12.971Z,6.90
2019-02-23T11:12:40.771Z,9.47
2019-02-23T11:15:09.081Z,7.53
2019-02-23T11:17:36.951Z,8.07
2019-02-23T11:20:04.684Z,12.50
2019-02-23T11:22:32.527Z,12.67
2019-02-23T11:25:00.552Z,9.83
2019-02-23T11:27:28.477Z,5.57
2019-02-23T11:29:56.425Z,6.43
2019-02-23T11:32:24.476Z,7.37
2019-02-23T11:34:52.531Z,11.47
2019-02-23T11:37:20.334Z,7.63
2019-02-23T11:39:48.248Z,9.43
2019-02-23T11:42:16.164Z,8.07
2019-02-23T11:44:44.023Z,7.50
2019-02-23T11:47:12.039Z,4.33
2019-02-23T11:49:39.767Z,4.13
2019-02-23T11:52:07.727Z,4.80
2019-02-23T11:54:36.676Z,5.20
2019-02-23T11:57:04.510Z,7.33
2019-02-23T11:59:32.367Z,6.53
2019-02-23T12:02:00.288Z,6.00
2019-02-23T12:04:28.195Z,10.20
2019-02-23T12:06:55.824Z,7.27
2019-02-23T12:09:23.787Z,5.80
2019-02-23T12:11:51.798Z,6.67
2019-02-23T12:14:19.675Z,7.27
2019-02-23T12:16:47.596Z,10.20
2019-02-23T12:19:15.496Z,6.43
2019-02-23T12:21:43.373Z,7.20
2019-02-23T12:24:11.500Z,6.67
2019-02-23T12:26:39.110Z,7.87
2019-02-23T12:29:06.972Z,4.77
2019-02-23T12:31:34.775Z,5.80
2019-02-23T12:34:02.810Z,6.97
2019-02-23T12:36:30.661Z,5.77
2019-02-23T12:38:58.593Z,4.43
2019-02-23T12:41:26.716Z,7.70
2019-02-23T12:43:54.669Z,9.27
2019-02-23T12:46:22.587Z,7.17
2019-02-23T12:48:50.521Z,3.33
2019-02-23T12:51:18.375Z,12.70
2019-02-23T12:53:46.486Z,7.03
2019-02-23T12:56:14.337Z,8.27
2019-02-23T12:58:42.291Z,4.30
2019-02-23T13:01:10.183Z,5.90
2019-02-23T13:03:38.096Z,8.90
2019-02-23T13:06:05.695Z,4.73
2019-02-23T13:08:51.816Z,7.17
2019-02-23T13:11:19.536Z,4.80
2019-02-23T13:14:25.103Z,5.73
2019-02-23T13:16:58.680Z,6.33
2019-02-23T13:19:48.298Z,6.80
2019-02-23T13:22:47.436Z,5.03
2019-02-23T13:25:34.615Z,7.77
2019-02-23T13:28:21.785Z,7.30
2019-02-23T13:31:03.427Z,6.70
2019-02-23T13:33:50.576Z,11.67
2019-02-23T13:36:43.812Z,11.43
2019-02-23T13:39:18.767Z,6.20
2019-02-23T13:42:12.108Z,8.97
2019-02-23T13:45:01.037Z,7.07
2019-02-23T13:47:33.227Z,7.07
2019-02-23T13:50:15.996Z,10.83
2019-02-23T13:53:12.556Z,6.03
2019-02-23T13:55:58.421Z,6.30
2019-02-23T13:58:29.198Z,9.93
2019-02-23T14:01:16.879Z,8.87
2019-02-23T14:04:13.172Z,6.03
2019-02-23T14:07:00.220Z,8.90
2019-02-23T14:09:47.477Z,7.57
2019-02-23T14:12:43.776Z,7.37
2019-02-23T14:15:19.769Z,3.70
2019-02-23T14:18:02.751Z,10.43
2019-02-23T14:20:57.013Z,5.63
2019-02-23T14:23:35.988Z,7.50
2019-02-23T14:26:32.048Z,4.57
2019-02-23T14:29:06.146Z,9.07
2019-02-23T14:31:59.444Z,8.60
2019-02-23T14:34:31.156Z,6.17
2019-02-23T14:37:08.979Z,8.93
2019-02-23T14:40:02.221Z,5.40
2019-02-23T14:42:52.407Z,10.13
2019-02-23T14:45:42.268Z,4.93
2019-02-23T14:48:33.827Z,4.57
2019-02-23T14:51:21.099Z,6.27
2019-02-23T14:53:59.748Z,7.03
2019-02-23T14:56:46.054Z,3.80
2019-02-23T14:59:42.791Z,6.83
2019-02-23T15:02:28.542Z,4.67
2019-02-23T15:05:15.815Z,7.27
2019-02-23T15:08:12.083Z,7.57
2019-02-23T15:10:50.516Z,5.33
2019-02-23T15:13:37.610Z,8.23
2019-02-23T15:16:24.751Z,5.83
2019-02-23T15:18:58.377Z,5.40
2019-02-23T15:21:39.156Z,7.10
2019-02-23T15:24:26.335Z,6.00
2019-02-23T15:27:28.991Z,3.00
2019-02-23T15:30:16.139Z,4.77
2019-02-23T15:33:03.401Z,3.57
2019-02-23T15:35:56.512Z,4.67
2019-02-23T15:38:31.065Z,9.20
2019-02-23T15:41:21.462Z,7.07
2019-02-23T15:44:11.582Z,5.97
2019-02-23T15:46:57.532Z,8.40
2019-02-23T15:49:28.644Z,5.47
2019-02-23T15:51:56.529Z,8.93
2019-02-23T15:54:24.417Z,8.10
2019-02-23T15:56:52.412Z,3.60
2019-02-23T15:59:20.353Z,6.37
2019-02-23T16:01:48.396Z,5.83
2019-02-23T16:04:16.316Z,8.57
2019-02-23T16:06:44.212Z,5.87
2019-02-23T16:09:12.074Z,6.40
2019-02-23T16:11:40.193Z,4.07
2019-02-23T16:14:08.062Z,4.97
2019-02-23T16:16:35.878Z,4.67
2019-02-23T16:19:03.793Z,5.90
2019-02-23T16:21:31.733Z,8.43
2019-02-23T16:23:59.603Z,6.93
2019-02-23T16:26:27.604Z,5.07
2019-02-23T16:28:55.944Z,8.87
2019-02-23T16:31:23.922Z,4.53
2019-02-23T16:33:51.691Z,7.07
2019-02-23T16:36:19.541Z,5.77
2019-02-23T16:38:47.313Z,9.23
2019-02-23T16:41:16.177Z,5.27
2019-02-23T16:43:44.059Z,5.47
2019-02-23T16:46:11.911Z,8.90
2019-02-23T16:48:39.823Z,4.03
2019-02-23T16:51:07.692Z,5.53
2019-02-23T16:53:35.516Z,6.03
2019-02-23T16:56:03.454Z,4.77
2019-02-23T16:58:31.375Z,3.30
2019-02-23T17:00:59.327Z,3.53
2019-02-23T17:03:27.364Z,3.67
2019-02-23T17:05:55.282Z,5.37
2019-02-23T17:08:23.123Z,5.80
2019-02-23T17:10:51.172Z,4.20
2019-02-23T17:13:18.954Z,4.43
2019-02-23T17:15:46.858Z,6.43
2019-02-23T17:18:14.754Z,5.00
2019-02-23T17:20:42.460Z,5.27
2019-02-23T17:23:10.453Z,7.47
2019-02-23T17:25:38.447Z,5.27
2019-02-23T17:28:07.133Z,3.37
2019-02-23T17:30:35.193Z,6.30
2019-02-23T17:33:03.184Z,9.17
2019-02-23T17:35:31.195Z,4.83
2019-02-23T17:37:59.058Z,6.37
2019-02-23T17:40:27.011Z,6.47
2019-02-23T17:42:54.962Z,3.63
2019-02-23T17:45:22.914Z,7.70
2019-02-23T17:47:50.773Z,4.77
2019-02-23T17:50:18.723Z,6.93
2019-02-23T17:52:46.691Z,8.70
2019-02-23T17:55:14.803Z,4.10
2019-02-23T17:57:42.692Z,5.23
2019-02-23T18:00:11.100Z,10.87
2019-02-23T18:02:39.182Z,9.23
2019-02-23T18:05:07.149Z,7.83
2019-02-23T18:07:34.978Z,5.73
2019-02-23T18:10:02.887Z,5.67
2019-02-23T18:12:30.881Z,8.50
2019-02-23T18:14:59.021Z,5.90
2019-02-23T18:17:27.092Z,5.87
2019-02-23T18:19:55.024Z,6.57
2019-02-23T18:22:23.131Z,8.77
2019-02-23T18:24:51.100Z,8.10
2019-02-23T18:27:19.597Z,6.77
2019-02-23T18:29:47.462Z,4.70
2019-02-23T18:32:15.459Z,8.07
2019-02-23T18:34:43.413Z,7.00
2019-02-23T18:37:11.556Z,6.93
2019-02-23T18:39:39.524Z,7.53
2019-02-23T18:42:07.558Z,5.37
2019-02-23T18:44:35.434Z,8.80
2019-02-23T18:47:03.242Z,4.90
2019-02-23T18:49:31.220Z,6.07
2019-02-23T18:51:59.063Z,5.57
2019-02-23T18:54:27.162Z,5.60
2019-02-23T18:56:55.200Z,6.77
2019-02-23T18:59:23.374Z,9.07
2019-02-23T19:01:51.342Z,4.93
2019-02-23T19:04:19.206Z,5.17
2019-02-23T19:06:47.121Z,6.73
2019-02-23T19:09:15.145Z,4.93
2019-02-23T19:11:43.114Z,9.07
2019-02-23T19:14:11.094Z,6.93
2019-02-23T19:16:39.257Z,7.80
2019-02-23T19:19:07.380Z,7.07
2019-02-23T19:21:35.396Z,7.60
2019-02-23T19:24:03.571Z,10.13
2019-02-23T19:26:37.970Z,7.50
2019-02-23T19:29:01.350Z,6.60
2019-02-23T19:31:29.248Z,8.00
2019-02-23T19:33:57.155Z,5.80
2019-02-23T19:36:25.155Z,8.07
2019-02-23T19:38:53.048Z,8.87
2019-02-23T19:41:21.019Z,9.43
2019-02-23T19:43:48.986Z,7.97
2019-02-23T19:46:17.234Z,7.90
2019-02-23T19:48:45.211Z,6.47
2019-02-23T19:51:13.147Z,6.53
2019-02-23T19:53:41.163Z,5.30
2019-02-23T19:56:09.067Z,4.60
2019-02-23T19:58:37.878Z,5.30
2019-02-23T20:01:06.102Z,4.87
2019-02-23T20:03:34.215Z,5.37
2019-02-23T20:06:02.208Z,6.27
2019-02-23T20:08:30.105Z,4.23
2019-02-23T20:10:58.000Z,8.13
2019-02-23T20:13:25.916Z,7.13
2019-02-23T20:15:53.895Z,7.60
2019-02-23T20:18:21.874Z,8.53
2019-02-23T20:20:49.816Z,9.50
2019-02-23T20:23:18.132Z,9.70
2019-02-23T20:25:46.329Z,8.00
2019-02-23T20:28:14.414Z,7.87
2019-02-23T20:30:42.353Z,8.70
2019-02-23T20:33:10.354Z,6.83
2019-02-23T20:35:39.850Z,6.47
2019-02-23T20:38:09.805Z,7.30
2019-02-23T20:40:40.992Z,7.27
2019-02-23T20:43:10.612Z,5.23
2019-02-23T20:45:40.874Z,8.73
2019-02-23T20:48:10.389Z,8.70
2019-02-23T20:50:58.409Z,5.10
2019-02-23T20:53:28.562Z,3.87
2019-02-23T20:55:59.435Z,5.00
2019-02-23T20:58:30.300Z,5.13
2019-02-23T21:00:59.964Z,5.97
2019-02-23T21:03:29.859Z,8.37
2019-02-23T21:05:59.912Z,6.83
2019-02-23T21:08:49.674Z,5.87
2019-02-23T21:11:19.430Z,7.97
2019-02-23T21:13:48.875Z,10.77
2019-02-23T21:16:18.643Z,8.17
2019-02-23T21:18:47.889Z,5.50
2019-02-23T21:21:16.096Z,6.57
2019-02-23T21:23:43.985Z,6.00
2019-02-23T21:26:12.154Z,6.33
2019-02-23T21:28:40.228Z,8.67
2019-02-23T21:31:08.150Z,13.43
2019-02-23T21:33:36.010Z,4.87
2019-02-23T21:36:03.900Z,7.40
2019-02-23T21:38:31.914Z,8.63
2019-02-23T21:40:59.980Z,5.73
2019-02-23T21:43:27.791Z,5.67
2019-02-23T21:45:55.581Z,8.73
2019-02-23T21:48:23.463Z,6.53
2019-02-23T21:50:51.306Z,4.80
2019-02-23T21:53:19.218Z,6.27
2019-02-23T21:55:47.124Z,5.10
2019-02-23T21:58:14.926Z,9.47
2019-02-23T22:00:42.772Z,6.67
2019-02-23T22:03:10.749Z,9.17
2019-02-23T22:05:38.595Z,5.13
2019-02-23T22:08:06.464Z,9.90
2019-02-23T22:10:34.410Z,7.83
2019-02-23T22:13:02.411Z,8.53
2019-02-23T22:15:30.398Z,6.93
2019-02-23T22:17:59.289Z,13.47
2019-02-23T22:20:27.239Z,5.80
2019-02-23T22:22:55.196Z,7.00
2019-02-23T22:25:23.118Z,7.70
2019-02-23T22:27:51.032Z,10.77
2019-02-23T22:30:18.843Z,5.20
2019-02-23T22:32:46.773Z,9.13
2019-02-23T22:35:14.624Z,6.90
2019-02-23T22:37:42.488Z,10.87
2019-02-23T22:40:10.410Z,6.60
2019-02-23T22:42:38.243Z,5.70
2019-02-23T22:45:06.185Z,7.30
2019-02-23T22:47:34.210Z,4.70
2019-02-23T22:50:02.051Z,7.20
2019-02-23T22:52:29.907Z,8.17
2019-02-23T22:54:57.892Z,7.20
2019-02-23T22:57:25.656Z,6.33
2019-02-23T22:59:53.587Z,12.87
2019-02-23T23:02:21.599Z,7.43
2019-02-23T23:04:49.417Z,7.37
2019-02-23T23:07:17.295Z,3.23
2019-02-23T23:09:45.291Z,8.83
2019-02-23T23:12:13.133Z,8.97
2019-02-23T23:14:40.984Z,5.20
2019-02-23T23:17:08.993Z,4.03
2019-02-23T23:19:36.818Z,4.77
2019-02-23T23:22:04.800Z,7.00
2019-02-23T23:24:32.740Z,8.90
2019-02-23T23:27:00.646Z,7.97
2019-02-23T23:29:28.515Z,6.40
2019-02-23T23:31:56.431Z,11.40
2019-02-23T23:34:24.333Z,7.13
2019-02-23T23:36:52.190Z,8.53
2019-02-23T23:39:20.504Z,5.13
2019-02-23T23:41:48.353Z,7.80
2019-02-23T23:44:16.200Z,4.53
2019-02-23T23:46:44.210Z,8.43
2019-02-23T23:49:12.041Z,6.27
2019-02-23T23:51:40.008Z,6.17
2019-02-23T23:54:07.932Z,5.77
2019-02-23T23:56:35.939Z,7.17
2019-02-23T23:59:03.708Z,10.57
